CEB425 RPMD-RPLL
Flight info
| Callsign | CEB425 |
|---|---|
| Flight time | N/A |
| Altitude | 38000 |
| Route | ANKIN3R ANKIN B473 LAIYA LAIYA5R |
| Aircraft | A339/H-SADE1E2E3GHIJ3J5M1P2RWXY/LB2D1 |
Departure
| Time | N/A |
|---|---|
| Airport | Francisco Bangoy International Airport (RPMD) |
Arrival
| Time | 2026-05-04 14:06 |
|---|---|
| Airport | Ninoy Aquino International Airport (RPLL) |
| Time | Latitude | Longitude | Altitude | Speed | Heading |
|---|---|---|---|---|---|
| 2026-05-04 12:58 | 9.36213 | 124.06168 | 37896 ft | 475 kts | 330° |
| 2026-05-04 12:59 | 9.39130 | 124.04475 | 37895 ft | 475 kts | 330° |
| 2026-05-04 12:59 | 9.44888 | 124.01157 | 37895 ft | 476 kts | 330° |
| 2026-05-04 13:00 | 9.49674 | 123.98394 | 37897 ft | 476 kts | 330° |
| 2026-05-04 13:00 | 9.56379 | 123.94501 | 37903 ft | 476 kts | 330° |
| 2026-05-04 13:01 | 9.62148 | 123.91150 | 37911 ft | 476 kts | 330° |
| 2026-05-04 13:01 | 9.67902 | 123.87805 | 37915 ft | 476 kts | 330° |
| 2026-05-04 13:02 | 9.73647 | 123.84464 | 37917 ft | 476 kts | 330° |
| 2026-05-04 13:02 | 9.79422 | 123.81105 | 37917 ft | 477 kts | 330° |
| 2026-05-04 13:03 | 9.85189 | 123.77748 | 37919 ft | 477 kts | 330° |
| 2026-05-04 13:03 | 9.90986 | 123.74372 | 37919 ft | 477 kts | 330° |
| 2026-05-04 13:04 | 9.96750 | 123.71014 | 37923 ft | 477 kts | 330° |
| 2026-05-04 13:04 | 10.02507 | 123.67657 | 37926 ft | 476 kts | 330° |
| 2026-05-04 13:05 | 10.08247 | 123.64308 | 37931 ft | 476 kts | 330° |
| 2026-05-04 13:05 | 10.14022 | 123.60941 | 37932 ft | 477 kts | 330° |
| 2026-05-04 13:06 | 10.19771 | 123.57584 | 37930 ft | 477 kts | 330° |
| 2026-05-04 13:06 | 10.25543 | 123.54209 | 37927 ft | 477 kts | 330° |
| 2026-05-04 13:07 | 10.31309 | 123.50841 | 37923 ft | 477 kts | 330° |
| 2026-05-04 13:07 | 10.37105 | 123.47465 | 37925 ft | 476 kts | 330° |
| 2026-05-04 13:08 | 10.42863 | 123.44106 | 37937 ft | 476 kts | 330° |
| 2026-05-04 13:08 | 10.48611 | 123.40749 | 37945 ft | 476 kts | 330° |
| 2026-05-04 13:09 | 10.54333 | 123.37404 | 37955 ft | 476 kts | 330° |
| 2026-05-04 13:09 | 10.60095 | 123.34034 | 37967 ft | 476 kts | 330° |
| 2026-05-04 13:10 | 10.65848 | 123.30669 | 37977 ft | 476 kts | 330° |
| 2026-05-04 13:10 | 10.71619 | 123.27298 | 37987 ft | 476 kts | 330° |
| 2026-05-04 13:11 | 10.77113 | 123.24085 | 37994 ft | 476 kts | 330° |
| 2026-05-04 13:11 | 10.82869 | 123.20712 | 37971 ft | 476 kts | 329° |
| 2026-05-04 13:12 | 10.88605 | 123.17345 | 37940 ft | 476 kts | 329° |
| 2026-05-04 13:12 | 10.94365 | 123.13964 | 37919 ft | 477 kts | 330° |
| 2026-05-04 13:13 | 11.00117 | 123.10589 | 37903 ft | 476 kts | 330° |
| 2026-05-04 13:13 | 11.05570 | 123.07391 | 37900 ft | 476 kts | 330° |
| 2026-05-04 13:14 | 11.11292 | 123.04031 | 37898 ft | 475 kts | 330° |
| 2026-05-04 13:14 | 11.17073 | 123.00635 | 37899 ft | 476 kts | 329° |
| 2026-05-04 13:15 | 11.22825 | 122.97252 | 37904 ft | 477 kts | 329° |
| 2026-05-04 13:15 | 11.28557 | 122.93877 | 37909 ft | 477 kts | 329° |
| 2026-05-04 13:16 | 11.34328 | 122.90480 | 37911 ft | 477 kts | 329° |
| 2026-05-04 13:16 | 11.40091 | 122.87091 | 37915 ft | 477 kts | 329° |
| 2026-05-04 13:17 | 11.45839 | 122.83707 | 37918 ft | 476 kts | 329° |
| 2026-05-04 13:17 | 11.51598 | 122.80308 | 37918 ft | 476 kts | 329° |
| 2026-05-04 13:18 | 11.57317 | 122.76935 | 37918 ft | 475 kts | 329° |
| 2026-05-04 13:18 | 11.62934 | 122.73372 | 37917 ft | 474 kts | 326° |
| 2026-05-04 13:19 | 11.68425 | 122.69679 | 37916 ft | 473 kts | 325° |
| 2026-05-04 13:19 | 11.73001 | 122.66594 | 37915 ft | 472 kts | 325° |
| 2026-05-04 13:20 | 11.79411 | 122.62272 | 37914 ft | 472 kts | 325° |
| 2026-05-04 13:20 | 11.84905 | 122.58568 | 37914 ft | 472 kts | 326° |
| 2026-05-04 13:21 | 11.90390 | 122.54870 | 37914 ft | 472 kts | 325° |
| 2026-05-04 13:21 | 11.94942 | 122.51799 | 37915 ft | 472 kts | 326° |
| 2026-05-04 13:22 | 12.01317 | 122.47497 | 37915 ft | 471 kts | 325° |
| 2026-05-04 13:22 | 12.06807 | 122.43790 | 37915 ft | 472 kts | 325° |
| 2026-05-04 13:23 | 12.12323 | 122.40063 | 37915 ft | 472 kts | 325° |
| 2026-05-04 13:23 | 12.17786 | 122.36371 | 37915 ft | 472 kts | 325° |
| 2026-05-04 13:24 | 12.23292 | 122.32646 | 37916 ft | 472 kts | 325° |
| 2026-05-04 13:24 | 12.28788 | 122.28924 | 37915 ft | 472 kts | 325° |
| 2026-05-04 13:25 | 12.37002 | 122.23358 | 37915 ft | 471 kts | 324° |
| 2026-05-04 13:25 | 12.42427 | 122.19615 | 37480 ft | 470 kts | 324° |
| 2026-05-04 13:26 | 12.45150 | 122.17723 | 36970 ft | 470 kts | 324° |
| 2026-05-04 13:26 | 12.47837 | 122.15855 | 36406 ft | 470 kts | 324° |
| 2026-05-04 13:26 | 12.50549 | 122.13966 | 35795 ft | 470 kts | 324° |
| 2026-05-04 13:26 | 12.52338 | 122.12722 | 35399 ft | 470 kts | 324° |
| 2026-05-04 13:27 | 12.55050 | 122.10834 | 34798 ft | 470 kts | 324° |
| 2026-05-04 13:27 | 12.57752 | 122.08955 | 34200 ft | 470 kts | 324° |
| 2026-05-04 13:27 | 12.61363 | 122.06442 | 33412 ft | 469 kts | 324° |
| 2026-05-04 13:27 | 12.63155 | 122.05196 | 33011 ft | 469 kts | 324° |
| 2026-05-04 13:28 | 12.66745 | 122.02698 | 32247 ft | 469 kts | 324° |
| 2026-05-04 13:28 | 12.67654 | 122.02065 | 32052 ft | 469 kts | 324° |
| 2026-05-04 13:29 | 12.82972 | 121.91396 | 28917 ft | 464 kts | 325° |
| 2026-05-04 13:29 | 12.85650 | 121.89528 | 28455 ft | 462 kts | 326° |
| 2026-05-04 13:30 | 12.88291 | 121.87687 | 28039 ft | 458 kts | 326° |
| 2026-05-04 13:30 | 12.90930 | 121.85847 | 27646 ft | 454 kts | 326° |
| 2026-05-04 13:30 | 12.93522 | 121.84040 | 27257 ft | 451 kts | 326° |
| 2026-05-04 13:30 | 12.96116 | 121.82230 | 26873 ft | 447 kts | 326° |
| 2026-05-04 13:31 | 12.98664 | 121.80453 | 26495 ft | 443 kts | 326° |
| 2026-05-04 13:31 | 13.01210 | 121.78674 | 26107 ft | 439 kts | 326° |
| 2026-05-04 13:31 | 13.02878 | 121.77510 | 25850 ft | 437 kts | 326° |
| 2026-05-04 13:31 | 13.06233 | 121.75166 | 25331 ft | 433 kts | 326° |
| 2026-05-04 13:32 | 13.08695 | 121.73447 | 24951 ft | 430 kts | 326° |
| 2026-05-04 13:32 | 13.10357 | 121.72285 | 24690 ft | 428 kts | 326° |
| 2026-05-04 13:32 | 13.13651 | 121.69983 | 24170 ft | 425 kts | 326° |
| 2026-05-04 13:32 | 13.16075 | 121.68288 | 23785 ft | 422 kts | 326° |
| 2026-05-04 13:33 | 13.18500 | 121.66591 | 23402 ft | 419 kts | 326° |
| 2026-05-04 13:33 | 13.20913 | 121.64903 | 23023 ft | 417 kts | 326° |
| 2026-05-04 13:33 | 13.23289 | 121.63242 | 22645 ft | 414 kts | 326° |
| 2026-05-04 13:33 | 13.25694 | 121.61558 | 22260 ft | 412 kts | 326° |
| 2026-05-04 13:34 | 13.28049 | 121.59910 | 21889 ft | 410 kts | 326° |
| 2026-05-04 13:34 | 13.30381 | 121.58276 | 21511 ft | 408 kts | 326° |
| 2026-05-04 13:34 | 13.32751 | 121.56615 | 21126 ft | 406 kts | 327° |
| 2026-05-04 13:34 | 13.35093 | 121.54974 | 20685 ft | 412 kts | 327° |
| 2026-05-04 13:35 | 13.37470 | 121.53310 | 20172 ft | 416 kts | 327° |
| 2026-05-04 13:35 | 13.42241 | 121.49966 | 19154 ft | 416 kts | 327° |
| 2026-05-04 13:35 | 13.44661 | 121.48267 | 18639 ft | 416 kts | 327° |
| 2026-05-04 13:36 | 13.47051 | 121.46590 | 18130 ft | 415 kts | 327° |
| 2026-05-04 13:36 | 13.49416 | 121.44931 | 17627 ft | 415 kts | 327° |
| 2026-05-04 13:36 | 13.51814 | 121.43249 | 17109 ft | 414 kts | 327° |
| 2026-05-04 13:36 | 13.53411 | 121.42130 | 16760 ft | 413 kts | 327° |
| 2026-05-04 13:37 | 13.56544 | 121.39929 | 16145 ft | 411 kts | 327° |
| 2026-05-04 13:37 | 13.58863 | 121.38265 | 15949 ft | 401 kts | 326° |
| 2026-05-04 13:37 | 13.61107 | 121.36597 | 15947 ft | 386 kts | 325° |
| 2026-05-04 13:37 | 13.62511 | 121.35545 | 15946 ft | 376 kts | 325° |
| 2026-05-04 13:38 | 13.65300 | 121.33456 | 15846 ft | 361 kts | 325° |
| 2026-05-04 13:38 | 13.67349 | 121.32032 | 15564 ft | 355 kts | 335° |
| 2026-05-04 13:38 | 13.69623 | 121.31113 | 15311 ft | 347 kts | 344° |
| 2026-05-04 13:38 | 13.71917 | 121.30373 | 15071 ft | 342 kts | 345° |
| 2026-05-04 13:39 | 13.74196 | 121.29643 | 14833 ft | 338 kts | 344° |
| 2026-05-04 13:39 | 13.75689 | 121.29150 | 14676 ft | 335 kts | 344° |
| 2026-05-04 13:39 | 13.78610 | 121.28158 | 14364 ft | 329 kts | 343° |
| 2026-05-04 13:39 | 13.80769 | 121.27403 | 14155 ft | 324 kts | 343° |
| 2026-05-04 13:40 | 13.82894 | 121.26654 | 13928 ft | 320 kts | 343° |
| 2026-05-04 13:40 | 13.85005 | 121.25903 | 13692 ft | 316 kts | 343° |
| 2026-05-04 13:40 | 13.87080 | 121.25163 | 13462 ft | 313 kts | 343° |
| 2026-05-04 13:40 | 13.89120 | 121.24432 | 13231 ft | 310 kts | 343° |
| 2026-05-04 13:41 | 13.91161 | 121.23698 | 13037 ft | 310 kts | 343° |
| 2026-05-04 13:41 | 13.93218 | 121.22960 | 13008 ft | 310 kts | 343° |
| 2026-05-04 13:41 | 13.95271 | 121.22222 | 13008 ft | 311 kts | 343° |
| 2026-05-04 13:42 | 13.99356 | 121.20752 | 13012 ft | 312 kts | 343° |
| 2026-05-04 13:42 | 14.01439 | 121.20003 | 13012 ft | 313 kts | 343° |
| 2026-05-04 13:42 | 14.03474 | 121.19271 | 13009 ft | 312 kts | 343° |
| 2026-05-04 13:42 | 14.05529 | 121.18532 | 12939 ft | 310 kts | 343° |
| 2026-05-04 13:43 | 14.07586 | 121.17790 | 12676 ft | 308 kts | 343° |
| 2026-05-04 13:43 | 14.09590 | 121.17069 | 12384 ft | 308 kts | 343° |
| 2026-05-04 13:43 | 14.11629 | 121.16334 | 12116 ft | 305 kts | 343° |
| 2026-05-04 13:43 | 14.13623 | 121.15616 | 11860 ft | 303 kts | 343° |
| 2026-05-04 13:44 | 14.15615 | 121.14896 | 11587 ft | 302 kts | 343° |
| 2026-05-04 13:44 | 14.17601 | 121.14178 | 11316 ft | 300 kts | 343° |
| 2026-05-04 13:44 | 14.19593 | 121.13460 | 11041 ft | 299 kts | 343° |
| 2026-05-04 13:44 | 14.21537 | 121.12758 | 10772 ft | 298 kts | 344° |
| 2026-05-04 13:45 | 14.23504 | 121.12048 | 10534 ft | 295 kts | 344° |
| 2026-05-04 13:45 | 14.24785 | 121.11587 | 10376 ft | 293 kts | 344° |
| 2026-05-04 13:45 | 14.26733 | 121.10886 | 10132 ft | 293 kts | 344° |
| 2026-05-04 13:45 | 14.29286 | 121.09964 | 9890 ft | 290 kts | 344° |
| 2026-05-04 13:46 | 14.31195 | 121.09274 | 9757 ft | 289 kts | 344° |
| 2026-05-04 13:46 | 14.33097 | 121.08589 | 9635 ft | 289 kts | 344° |
| 2026-05-04 13:46 | 14.35001 | 121.07902 | 9509 ft | 288 kts | 344° |
| 2026-05-04 13:46 | 14.36906 | 121.07192 | 9380 ft | 289 kts | 339° |
| 2026-05-04 13:47 | 14.38542 | 121.05975 | 9230 ft | 297 kts | 313° |
| 2026-05-04 13:47 | 14.39539 | 121.04092 | 9135 ft | 304 kts | 287° |
| 2026-05-04 13:47 | 14.39679 | 121.01926 | 8927 ft | 307 kts | 262° |
| 2026-05-04 13:47 | 14.38966 | 120.99873 | 8615 ft | 308 kts | 242° |
| 2026-05-04 13:48 | 14.37874 | 120.97955 | 8376 ft | 307 kts | 238° |
| 2026-05-04 13:48 | 14.36724 | 120.96087 | 8149 ft | 305 kts | 237° |
| 2026-05-04 13:48 | 14.35578 | 120.94250 | 7925 ft | 303 kts | 237° |
| 2026-05-04 13:48 | 14.34442 | 120.92436 | 7693 ft | 301 kts | 237° |
| 2026-05-04 13:49 | 14.33303 | 120.90620 | 7389 ft | 302 kts | 237° |
| 2026-05-04 13:49 | 14.32162 | 120.88800 | 7104 ft | 302 kts | 237° |
| 2026-05-04 13:49 | 14.31038 | 120.87006 | 7025 ft | 294 kts | 237° |
| 2026-05-04 13:49 | 14.29922 | 120.85222 | 7024 ft | 297 kts | 237° |
| 2026-05-04 13:50 | 14.28801 | 120.83425 | 6965 ft | 295 kts | 237° |
| 2026-05-04 13:50 | 14.28072 | 120.82259 | 6794 ft | 294 kts | 237° |
| 2026-05-04 13:50 | 14.26584 | 120.79887 | 6419 ft | 295 kts | 237° |
| 2026-05-04 13:50 | 14.25462 | 120.78104 | 6199 ft | 293 kts | 237° |
| 2026-05-04 13:51 | 14.24363 | 120.76365 | 6036 ft | 288 kts | 237° |
| 2026-05-04 13:51 | 14.23270 | 120.74628 | 6036 ft | 291 kts | 237° |
| 2026-05-04 13:51 | 14.22165 | 120.72866 | 6028 ft | 291 kts | 237° |
| 2026-05-04 13:51 | 14.21070 | 120.71113 | 6025 ft | 291 kts | 237° |
| 2026-05-04 13:52 | 14.18874 | 120.67588 | 6020 ft | 292 kts | 237° |
| 2026-05-04 13:52 | 14.17788 | 120.65837 | 6019 ft | 292 kts | 237° |
| 2026-05-04 13:52 | 14.16694 | 120.64070 | 5898 ft | 289 kts | 237° |
| 2026-05-04 13:53 | 14.15615 | 120.62321 | 5695 ft | 286 kts | 237° |
| 2026-05-04 13:53 | 14.14569 | 120.60620 | 5498 ft | 276 kts | 237° |
| 2026-05-04 13:53 | 14.13713 | 120.58891 | 5384 ft | 269 kts | 257° |
| 2026-05-04 13:54 | 14.14473 | 120.55423 | 5154 ft | 248 kts | 317° |
| 2026-05-04 13:54 | 14.15886 | 120.54504 | 5037 ft | 234 kts | 347° |
| 2026-05-04 13:54 | 14.18884 | 120.54748 | 5004 ft | 213 kts | 42° |
| 2026-05-04 13:55 | 14.19927 | 120.55802 | 5014 ft | 208 kts | 48° |
| 2026-05-04 13:55 | 14.21941 | 120.57943 | 5014 ft | 207 kts | 47° |
| 2026-05-04 13:55 | 14.22965 | 120.59007 | 5017 ft | 207 kts | 46° |
| 2026-05-04 13:56 | 14.23989 | 120.60062 | 5021 ft | 207 kts | 46° |
| 2026-05-04 13:56 | 14.25009 | 120.61107 | 5021 ft | 207 kts | 46° |
| 2026-05-04 13:56 | 14.27062 | 120.63200 | 5022 ft | 207 kts | 46° |
| 2026-05-04 13:57 | 14.27748 | 120.63898 | 5020 ft | 207 kts | 46° |
| 2026-05-04 13:57 | 14.29172 | 120.65220 | 5011 ft | 203 kts | 42° |
| 2026-05-04 13:58 | 14.31699 | 120.67767 | 5015 ft | 184 kts | 55° |
| 2026-05-04 13:58 | 14.33302 | 120.70367 | 5008 ft | 183 kts | 59° |
| 2026-05-04 13:58 | 14.33947 | 120.71489 | 4827 ft | 183 kts | 60° |
| 2026-05-04 13:59 | 14.34594 | 120.72630 | 4623 ft | 183 kts | 60° |
| 2026-05-04 13:59 | 14.35234 | 120.73770 | 4423 ft | 183 kts | 60° |
| 2026-05-04 13:59 | 14.36496 | 120.76038 | 4061 ft | 181 kts | 61° |
| 2026-05-04 14:00 | 14.36908 | 120.76783 | 3931 ft | 181 kts | 61° |
| 2026-05-04 14:00 | 14.38158 | 120.79046 | 3540 ft | 181 kts | 62° |
| 2026-05-04 14:00 | 14.38978 | 120.80531 | 3431 ft | 179 kts | 62° |
| 2026-05-04 14:01 | 14.39601 | 120.81659 | 3430 ft | 180 kts | 62° |
| 2026-05-04 14:01 | 14.40219 | 120.82778 | 3418 ft | 181 kts | 62° |
| 2026-05-04 14:01 | 14.41471 | 120.85040 | 3219 ft | 180 kts | 62° |
| 2026-05-04 14:02 | 14.42087 | 120.86150 | 2996 ft | 173 kts | 62° |
| 2026-05-04 14:02 | 14.42676 | 120.87212 | 2765 ft | 167 kts | 62° |
| 2026-05-04 14:02 | 14.43243 | 120.88234 | 2553 ft | 161 kts | 62° |
| 2026-05-04 14:02 | 14.43789 | 120.89218 | 2331 ft | 155 kts | 61° |
| 2026-05-04 14:03 | 14.44313 | 120.90163 | 2134 ft | 149 kts | 62° |
| 2026-05-04 14:03 | 14.44823 | 120.91080 | 1950 ft | 145 kts | 62° |
| 2026-05-04 14:03 | 14.45322 | 120.91981 | 1780 ft | 145 kts | 61° |
| 2026-05-04 14:03 | 14.45824 | 120.92884 | 1606 ft | 144 kts | 61° |
| 2026-05-04 14:04 | 14.46825 | 120.94688 | 1241 ft | 143 kts | 61° |
| 2026-05-04 14:04 | 14.47319 | 120.95575 | 1057 ft | 143 kts | 61° |
| 2026-05-04 14:04 | 14.47646 | 120.96162 | 935 ft | 143 kts | 60° |
| 2026-05-04 14:05 | 14.48802 | 120.98243 | 481 ft | 142 kts | 62° |
| 2026-05-04 14:05 | 14.49294 | 120.99128 | 299 ft | 142 kts | 62° |
| 2026-05-04 14:05 | 14.49778 | 121.00006 | 150 ft | 140 kts | 61° |
| 2026-05-04 14:06 | 14.50252 | 121.00864 | 90 ft | 124 kts | 58° |
| 2026-05-04 14:06 | 14.50600 | 121.01489 | 90 ft | 74 kts | 60° |
| 2026-05-04 14:06 | 14.50798 | 121.01848 | 90 ft | 47 kts | 60° |
| 2026-05-04 14:06 | 14.50947 | 121.02109 | 90 ft | 26 kts | 59° |
| 2026-05-04 14:07 | 14.51048 | 121.02221 | 90 ft | 18 kts | 41° |
| 2026-05-04 14:07 | 14.51121 | 121.02288 | 90 ft | 7 kts | 41° |
| 2026-05-04 14:07 | 14.51172 | 121.02295 | 90 ft | 7 kts | 329° |
| 2026-05-04 14:07 | 14.51182 | 121.02250 | 90 ft | 7 kts | 255° |
| 2026-05-04 14:08 | 14.51155 | 121.02193 | 90 ft | 9 kts | 240° |
| 2026-05-04 14:08 | 14.51118 | 121.02128 | 90 ft | 11 kts | 239° |
| 2026-05-04 14:08 | 14.51076 | 121.02055 | 90 ft | 12 kts | 239° |
| 2026-05-04 14:08 | 14.51064 | 121.01999 | 90 ft | 7 kts | 295° |
| 2026-05-04 14:09 | 14.51164 | 121.01891 | 90 ft | 13 kts | 315° |
| 2026-05-04 14:09 | 14.51232 | 121.01821 | 90 ft | 14 kts | 314° |
| 2026-05-04 14:10 | 14.51380 | 121.01667 | 90 ft | 15 kts | 315° |
| 2026-05-04 14:10 | 14.51459 | 121.01586 | 90 ft | 13 kts | 314° |
| 2026-05-04 14:10 | 14.51495 | 121.01559 | 90 ft | 3 kts | 358° |
| 2026-05-04 14:10 | 14.51516 | 121.01566 | 90 ft | 5 kts | 31° |
| 2026-05-04 14:11 | 14.51557 | 121.01605 | 90 ft | 4 kts | 44° |
| 2026-05-04 14:11 | 14.51564 | 121.01611 | 90 ft | 0 kts | 44° |